createdAt,value
2022-11-25T00:02:30.715Z,56.40
2022-11-25T00:05:42.625Z,56.68
2022-11-25T00:08:57.914Z,54.93
2022-11-25T00:12:09.970Z,51.18
2022-11-25T00:15:22.017Z,53.33
2022-11-25T00:18:33.746Z,54.10
2022-11-25T00:21:45.534Z,54.28
2022-11-25T00:24:57.235Z,52.53
2022-11-25T00:28:08.993Z,49.48
2022-11-25T00:31:23.699Z,49.60
2022-11-25T00:34:35.818Z,49.03
2022-11-25T00:37:47.828Z,50.25
2022-11-25T00:41:12.041Z,48.08
2022-11-25T00:44:41.653Z,48.13
2022-11-25T00:47:54.004Z,52.25
2022-11-25T00:51:05.731Z,50.35
2022-11-25T00:54:19.995Z,51.23
2022-11-25T00:57:31.770Z,46.60
2022-11-25T01:00:44.969Z,46.65
2022-11-25T01:03:58.248Z,46.00
2022-11-25T01:07:10.247Z,45.05
2022-11-25T01:10:22.501Z,46.38
2022-11-25T01:13:34.332Z,44.05
2022-11-25T01:16:46.192Z,42.28
2022-11-25T01:19:57.930Z,42.20
2022-11-25T01:23:09.645Z,44.08
2022-11-25T01:26:24.044Z,45.83
2022-11-25T01:29:36.169Z,44.03
2022-11-25T01:32:48.490Z,41.35
2022-11-25T01:36:00.148Z,42.75
2022-11-25T01:39:12.717Z,39.85
2022-11-25T01:42:25.583Z,44.03
2022-11-25T01:45:45.767Z,42.93
2022-11-25T01:49:01.851Z,41.10
2022-11-25T01:52:21.939Z,40.40
2022-11-25T01:55:37.096Z,41.68
2022-11-25T01:58:51.423Z,43.03
2022-11-25T02:02:04.827Z,43.55
2022-11-25T02:05:20.793Z,40.63
2022-11-25T02:08:37.445Z,41.38
2022-11-25T02:11:51.197Z,38.50
2022-11-25T02:15:12.377Z,38.95
2022-11-25T02:18:24.586Z,39.60
2022-11-25T02:22:08.893Z,36.98
2022-11-25T02:25:26.376Z,37.80
2022-11-25T02:28:39.433Z,38.70
2022-11-25T02:31:54.609Z,40.28
2022-11-25T02:35:06.467Z,38.08
2022-11-25T02:38:23.268Z,35.85
2022-11-25T02:41:39.718Z,35.48
2022-11-25T02:48:03.129Z,32.88
2022-11-25T02:51:19.124Z,36.80
2022-11-25T02:54:31.723Z,36.60
2022-11-25T02:57:45.366Z,37.23
2022-11-25T03:00:57.651Z,36.13
2022-11-25T03:04:10.368Z,36.85
2022-11-25T03:07:22.743Z,35.08
2022-11-25T03:10:35.074Z,31.23
2022-11-25T03:13:47.280Z,27.03
2022-11-25T03:17:00.103Z,23.15
2022-11-25T03:20:15.376Z,23.35
2022-11-25T03:23:27.540Z,21.18
2022-11-25T03:26:39.784Z,22.85
2022-11-25T03:29:52.554Z,21.28
2022-11-25T03:33:05.816Z,21.20
2022-11-25T03:36:18.887Z,24.10
2022-11-25T03:39:32.939Z,26.18
2022-11-25T03:42:46.352Z,28.30
2022-11-25T03:45:58.528Z,28.73
2022-11-25T03:49:10.697Z,28.63
2022-11-25T03:52:22.478Z,29.35
2022-11-25T03:55:34.901Z,29.88
2022-11-25T03:58:46.789Z,33.00
2022-11-25T04:01:59.224Z,31.98
2022-11-25T04:05:13.051Z,30.48
2022-11-25T04:08:24.941Z,31.03
2022-11-25T04:11:48.040Z,33.80
2022-11-25T04:15:00.087Z,34.35
2022-11-25T04:18:12.037Z,37.65
2022-11-25T04:21:24.315Z,38.53
2022-11-25T04:24:37.250Z,41.03
2022-11-25T04:27:49.606Z,40.08
2022-11-25T04:31:03.502Z,39.68
2022-11-25T04:34:15.638Z,42.38
2022-11-25T04:37:29.553Z,42.23
2022-11-25T04:40:43.112Z,43.43
2022-11-25T04:43:56.810Z,41.80
2022-11-25T04:47:08.865Z,41.45
2022-11-25T04:50:25.541Z,40.50
2022-11-25T04:53:42.699Z,40.48
2022-11-25T04:56:55.406Z,40.33
2022-11-25T05:00:11.831Z,37.08
2022-11-25T05:03:23.868Z,34.03
2022-11-25T05:06:36.088Z,33.78
2022-11-25T05:09:50.032Z,31.80
2022-11-25T05:13:03.940Z,32.63
2022-11-25T05:16:17.034Z,31.60
2022-11-25T05:19:29.278Z,28.45
2022-11-25T05:22:42.099Z,26.40
2022-11-25T05:25:55.870Z,27.35
2022-11-25T05:29:09.774Z,27.38
2022-11-25T05:32:22.069Z,28.18
2022-11-25T05:35:34.305Z,28.95
2022-11-25T05:38:54.019Z,30.28
2022-11-25T05:42:07.894Z,32.10
2022-11-25T05:45:19.892Z,34.38
2022-11-25T05:48:32.062Z,37.48
2022-11-25T05:51:45.950Z,36.28
2022-11-25T05:54:57.744Z,36.15
2022-11-25T05:58:10.635Z,36.25
2022-11-25T06:01:23.741Z,35.93
2022-11-25T06:04:35.790Z,37.18
2022-11-25T06:07:48.037Z,38.30
2022-11-25T06:11:00.581Z,37.48
2022-11-25T06:14:12.486Z,35.10
2022-11-25T06:17:24.515Z,34.00
2022-11-25T06:20:38.428Z,35.03
2022-11-25T06:23:50.811Z,38.30
2022-11-25T06:27:03.470Z,39.73
2022-11-25T06:30:18.983Z,35.80
2022-11-25T06:33:32.568Z,36.00
2022-11-25T06:36:46.229Z,36.30
2022-11-25T06:39:57.977Z,37.78
2022-11-25T06:43:11.579Z,37.50
2022-11-25T06:46:26.241Z,39.45
2022-11-25T06:49:38.094Z,39.00
2022-11-25T06:52:49.867Z,37.40
2022-11-25T06:56:16.495Z,40.60
2022-11-25T06:59:28.792Z,41.80
2022-11-25T07:02:44.213Z,41.25
2022-11-25T07:05:55.026Z,48.18
2022-11-25T07:09:08.078Z,39.48
2022-11-25T07:12:19.748Z,38.83
2022-11-25T07:15:31.586Z,40.28
2022-11-25T07:18:45.243Z,42.25
2022-11-25T07:21:57.033Z,43.83
2022-11-25T07:25:09.504Z,44.18
2022-11-25T07:28:21.194Z,44.88
2022-11-25T07:31:35.698Z,45.45
2022-11-25T07:34:47.955Z,47.43
2022-11-25T07:37:59.543Z,50.00
2022-11-25T07:41:17.695Z,49.48
2022-11-25T07:44:29.397Z,48.55
2022-11-25T07:47:49.216Z,47.28
2022-11-25T07:51:00.959Z,47.40
2022-11-25T07:54:15.914Z,50.83
2022-11-25T07:57:27.743Z,53.10
2022-11-25T08:00:39.395Z,49.80
2022-11-25T08:03:53.985Z,47.98
2022-11-25T08:07:05.932Z,46.60
2022-11-25T08:10:18.567Z,50.95
2022-11-25T08:13:30.317Z,50.30
2022-11-25T08:16:42.370Z,53.88
2022-11-25T08:19:54.527Z,47.03
2022-11-25T08:23:06.158Z,50.60
2022-11-25T08:26:20.979Z,47.30
2022-11-25T08:29:32.595Z,66.15
2022-11-25T08:32:46.185Z,49.60
2022-11-25T08:36:01.795Z,52.23
2022-11-25T08:39:36.241Z,48.50
2022-11-25T08:42:28.476Z,50.13
2022-11-25T08:45:40.135Z,48.28
2022-11-25T08:48:52.266Z,51.63
2022-11-25T08:52:04.067Z,53.73
2022-11-25T08:55:16.878Z,51.45
2022-11-25T08:58:28.675Z,51.93
2022-11-25T09:01:40.865Z,52.40
2022-11-25T09:04:52.677Z,51.98
2022-11-25T09:08:04.800Z,58.53
2022-11-25T09:11:18.695Z,53.93
2022-11-25T09:14:30.578Z,48.95
2022-11-25T09:17:42.291Z,50.58
2022-11-25T09:20:54.642Z,53.70
2022-11-25T09:24:06.431Z,51.55
2022-11-25T09:27:18.258Z,51.85
2022-11-25T09:30:30.436Z,48.55
2022-11-25T09:33:42.945Z,47.13
2022-11-25T09:36:54.753Z,48.33
2022-11-25T09:40:06.545Z,46.20
2022-11-25T09:43:43.118Z,47.45
2022-11-25T09:47:02.292Z,47.23
2022-11-25T09:50:24.573Z,47.38
2022-11-25T09:53:49.307Z,45.63
2022-11-25T09:57:07.389Z,43.63
2022-11-25T10:00:24.794Z,44.88
2022-11-25T10:03:43.538Z,47.33
2022-11-25T10:07:01.273Z,44.55
2022-11-25T10:10:23.717Z,41.80
2022-11-25T10:13:44.456Z,44.63
2022-11-25T10:17:01.289Z,43.60
2022-11-25T10:20:19.613Z,46.93
2022-11-25T10:23:36.262Z,48.75
2022-11-25T10:26:52.998Z,52.25
2022-11-25T10:30:16.070Z,48.33
2022-11-25T10:33:30.977Z,47.33
2022-11-25T10:36:46.447Z,47.40
2022-11-25T10:39:58.451Z,53.98
2022-11-25T10:43:18.496Z,49.83
2022-11-25T10:47:11.145Z,48.65
2022-11-25T10:49:59.468Z,48.33
2022-11-25T10:53:19.539Z,49.75
2022-11-25T10:56:31.443Z,53.58
2022-11-25T10:59:45.082Z,51.70
2022-11-25T11:02:57.463Z,47.13
2022-11-25T11:06:10.512Z,48.98
2022-11-25T11:09:46.383Z,47.33
2022-11-25T11:13:08.208Z,51.10
2022-11-25T11:16:36.527Z,52.55
2022-11-25T11:19:48.630Z,50.95
2022-11-25T11:23:09.567Z,49.85
2022-11-25T11:26:30.354Z,51.83
2022-11-25T11:29:42.572Z,55.00
2022-11-25T11:33:06.385Z,56.05
2022-11-25T11:36:30.391Z,53.48
2022-11-25T11:40:03.109Z,51.93
2022-11-25T11:44:04.538Z,51.98
2022-11-25T11:47:25.078Z,55.93
2022-11-25T11:50:43.743Z,55.93
2022-11-25T11:54:04.043Z,54.23
2022-11-25T11:57:22.632Z,55.08
2022-11-25T12:00:39.204Z,52.63
2022-11-25T12:03:58.592Z,54.25
2022-11-25T12:07:15.954Z,55.23
2022-11-25T12:10:35.160Z,53.00
2022-11-25T12:13:55.349Z,53.35
2022-11-25T12:17:11.914Z,51.30
2022-11-25T12:20:32.047Z,51.55
2022-11-25T12:23:53.006Z,55.60
2022-11-25T12:27:09.400Z,58.30
2022-11-25T12:30:26.474Z,56.25
2022-11-25T12:36:56.223Z,55.17
2022-11-25T12:40:16.252Z,56.38
2022-11-25T12:43:38.396Z,56.75
2022-11-25T12:46:54.070Z,56.83
2022-11-25T12:50:06.138Z,56.98
2022-11-25T12:53:24.363Z,53.83
2022-11-25T12:56:46.402Z,52.93
2022-11-25T13:04:11.027Z,52.63
2022-11-25T13:07:42.739Z,48.53
2022-11-25T13:11:12.212Z,47.23
2022-11-25T13:14:31.646Z,50.20
2022-11-25T13:17:47.791Z,49.38
2022-11-25T13:21:00.749Z,49.90
2022-11-25T13:24:28.565Z,47.20
2022-11-25T13:27:58.839Z,46.43
2022-11-25T13:31:27.699Z,47.50
2022-11-25T13:34:40.728Z,48.10
2022-11-25T13:37:52.532Z,45.38
2022-11-25T13:41:24.809Z,44.03
2022-11-25T13:44:39.207Z,45.73
2022-11-25T13:47:54.633Z,44.85
2022-11-25T13:51:27.218Z,46.33
2022-11-25T13:54:47.928Z,43.70
2022-11-25T13:58:22.450Z,41.88
2022-11-25T14:01:34.460Z,43.85
2022-11-25T14:04:53.954Z,45.25
2022-11-25T14:08:12.567Z,44.40
2022-11-25T14:11:56.911Z,42.63
2022-11-25T14:15:28.925Z,39.20
2022-11-25T14:19:51.669Z,39.55
2022-11-25T14:23:26.658Z,40.03
2022-11-25T14:26:50.050Z,38.90
2022-11-25T14:29:58.921Z,37.93
2022-11-25T14:33:14.464Z,35.98
2022-11-25T14:36:30.742Z,35.45
2022-11-25T14:39:48.117Z,36.77
2022-11-25T14:43:04.979Z,37.35
2022-11-25T14:46:25.669Z,45.63
2022-11-25T14:50:11.792Z,37.63
2022-11-25T14:53:06.472Z,37.13
2022-11-25T14:56:19.855Z,37.63
2022-11-25T14:59:34.014Z,37.70
2022-11-25T15:02:58.029Z,43.85
2022-11-25T15:06:15.385Z,51.93
2022-11-25T15:09:31.472Z,56.18
2022-11-25T15:12:46.434Z,57.05
2022-11-25T15:15:59.723Z,61.10
2022-11-25T15:19:19.040Z,63.80
2022-11-25T15:22:31.365Z,64.15
2022-11-25T15:25:54.151Z,62.88
2022-11-25T15:29:08.895Z,59.55
2022-11-25T15:35:37.822Z,58.08
2022-11-25T15:38:52.293Z,59.53
2022-11-25T15:42:14.484Z,60.58
2022-11-25T15:45:29.420Z,58.75
2022-11-25T15:48:46.332Z,58.53
2022-11-25T15:52:03.399Z,59.35
2022-11-25T15:55:27.995Z,57.20
2022-11-25T15:58:40.698Z,59.70
2022-11-25T16:01:52.861Z,63.95
2022-11-25T16:05:40.758Z,62.23
2022-11-25T16:09:00.751Z,57.10
2022-11-25T16:12:22.298Z,57.48
2022-11-25T16:15:52.923Z,58.28
2022-11-25T16:19:22.528Z,60.48
2022-11-25T16:22:35.039Z,60.75
2022-11-25T16:25:48.939Z,57.88
2022-11-25T16:29:04.373Z,56.10
2022-11-25T16:32:22.648Z,57.45
2022-11-25T16:35:34.625Z,60.45
2022-11-25T16:38:46.510Z,59.55
2022-11-25T16:42:05.691Z,59.08
2022-11-25T16:45:26.563Z,56.38
2022-11-25T16:48:39.231Z,57.50
2022-11-25T16:51:54.618Z,58.35
2022-11-25T16:55:07.104Z,57.83
2022-11-25T16:58:25.253Z,59.05
2022-11-25T17:01:39.393Z,57.45
2022-11-25T17:04:51.913Z,53.30
2022-11-25T17:08:04.184Z,53.65
2022-11-25T17:11:22.721Z,53.53
2022-11-25T17:14:40.261Z,56.00
2022-11-25T17:17:53.683Z,55.98
2022-11-25T17:21:05.853Z,54.68
2022-11-25T17:24:24.560Z,53.30
2022-11-25T17:27:38.881Z,56.05
2022-11-25T17:30:53.985Z,56.05
2022-11-25T17:34:05.958Z,58.20
2022-11-25T17:37:22.788Z,54.98
2022-11-25T17:40:34.913Z,55.60
2022-11-25T17:43:47.488Z,56.10
2022-11-25T17:47:00.880Z,57.08
2022-11-25T17:50:25.604Z,60.60
2022-11-25T17:53:37.984Z,56.15
2022-11-25T17:56:52.684Z,55.65
2022-11-25T18:00:04.934Z,58.78
2022-11-25T18:03:19.811Z,60.83
2022-11-25T18:06:31.780Z,58.30
2022-11-25T18:09:44.488Z,58.40
2022-11-25T18:12:59.570Z,53.63
2022-11-25T18:16:12.429Z,52.03
2022-11-25T18:19:24.709Z,51.65
2022-11-25T18:22:36.830Z,52.55
2022-11-25T18:25:49.643Z,55.00
2022-11-25T18:29:01.747Z,56.80
2022-11-25T18:32:14.758Z,54.90
2022-11-25T18:35:35.415Z,53.80
2022-11-25T18:38:43.681Z,52.90
2022-11-25T18:41:58.897Z,55.55
2022-11-25T18:45:15.293Z,57.40
2022-11-25T18:48:29.505Z,57.40
2022-11-25T18:51:41.876Z,55.53
2022-11-25T18:54:53.823Z,55.08
2022-11-25T18:58:07.689Z,55.63
2022-11-25T19:01:21.907Z,56.80
2022-11-25T19:04:34.097Z,57.00
2022-11-25T19:07:46.537Z,59.38
2022-11-25T19:10:59.439Z,54.45
2022-11-25T19:14:16.189Z,55.38
2022-11-25T19:17:30.269Z,56.25
2022-11-25T19:20:42.334Z,54.20
2022-11-25T19:23:55.229Z,53.18
2022-11-25T19:27:07.656Z,49.28
2022-11-25T19:30:26.172Z,45.65
2022-11-25T19:33:41.095Z,41.43
2022-11-25T19:36:53.394Z,36.03
2022-11-25T19:40:08.994Z,34.50
2022-11-25T19:43:22.655Z,22.05
2022-11-25T19:47:07.058Z,20.43
2022-11-25T19:49:52.039Z,18.35
2022-11-25T19:53:04.112Z,17.78
2022-11-25T19:56:23.763Z,16.23
2022-11-25T19:59:35.651Z,15.60
2022-11-25T20:02:48.245Z,16.28
2022-11-25T20:06:01.580Z,13.98
2022-11-25T20:09:18.575Z,10.38
2022-11-25T20:15:46.745Z,10.35
2022-11-25T20:19:02.315Z,10.80
2022-11-25T20:22:15.632Z,11.73
2022-11-25T20:25:29.818Z,11.85
2022-11-25T20:28:42.764Z,12.50
2022-11-25T20:31:54.880Z,15.25
2022-11-25T20:35:07.584Z,18.53
2022-11-25T20:38:24.140Z,20.98
2022-11-25T20:41:37.389Z,21.70
2022-11-25T20:44:52.140Z,20.30
2022-11-25T20:48:03.301Z,20.55
2022-11-25T20:51:22.143Z,16.53
2022-11-25T20:54:36.295Z,18.00
2022-11-25T20:57:48.636Z,30.55
2022-11-25T21:01:03.440Z,21.23
2022-11-25T21:04:15.258Z,19.20
2022-11-25T21:07:27.567Z,17.80
2022-11-25T21:10:39.754Z,19.65
2022-11-25T21:13:52.896Z,22.10
2022-11-25T21:17:04.937Z,25.00
2022-11-25T21:20:19.118Z,28.55
2022-11-25T21:23:34.631Z,23.63
2022-11-25T21:26:46.659Z,20.63
2022-11-25T21:29:58.925Z,21.88
2022-11-25T21:33:13.154Z,23.35
2022-11-25T21:36:28.448Z,23.68
2022-11-25T21:39:41.751Z,23.63
2022-11-25T21:42:53.533Z,33.08
2022-11-25T21:46:08.663Z,34.50
2022-11-25T21:49:23.698Z,36.40
2022-11-25T21:52:35.491Z,36.03
2022-11-25T21:55:47.709Z,34.48
2022-11-25T21:59:02.984Z,32.48
2022-11-25T22:02:25.552Z,27.25
2022-11-25T22:05:37.470Z,26.73
2022-11-25T22:08:49.519Z,29.00
2022-11-25T22:12:01.531Z,33.63
2022-11-25T22:15:20.604Z,31.83
2022-11-25T22:18:36.240Z,32.98
2022-11-25T22:21:47.986Z,32.35
2022-11-25T22:24:59.868Z,32.90
2022-11-25T22:28:11.982Z,32.85
2022-11-25T22:31:25.477Z,34.23
2022-11-25T22:34:38.281Z,31.23
2022-11-25T22:37:55.136Z,29.30
2022-11-25T22:41:08.705Z,33.05
2022-11-25T22:44:27.976Z,31.40
2022-11-25T22:47:43.856Z,32.60
2022-11-25T22:50:55.642Z,30.13
2022-11-25T22:54:09.561Z,29.55
2022-11-25T22:57:21.647Z,29.28
2022-11-25T23:00:37.416Z,30.45
2022-11-25T23:03:50.407Z,32.73
2022-11-25T23:07:02.371Z,42.25
2022-11-25T23:10:22.880Z,42.50
2022-11-25T23:13:34.732Z,41.05
2022-11-25T23:16:48.162Z,37.80
2022-11-25T23:20:01.747Z,42.25
2022-11-25T23:23:19.932Z,44.80
2022-11-25T23:26:35.023Z,44.68
2022-11-25T23:29:46.489Z,44.78
2022-11-25T23:32:59.842Z,45.40
2022-11-25T23:36:16.537Z,49.30
2022-11-25T23:39:31.318Z,55.08
2022-11-25T23:42:43.012Z,53.35
2022-11-25T23:45:58.572Z,47.48
2022-11-25T23:49:13.774Z,44.55
2022-11-25T23:52:29.687Z,44.75
2022-11-25T23:55:43.292Z,44.38
2022-11-25T23:58:54.993Z,45.33
